sensor_id;sensor_type;location;lat;lon;timestamp;pressure;altitude;pressure_sealevel;temperature;humidity
81033;BME280;70514;52.478;6.102;2024-01-30T00:00:34;102728.19;;;5.05;100.00
81033;BME280;70514;52.478;6.102;2024-01-30T00:03:01;102730.13;;;5.09;100.00
81033;BME280;70514;52.478;6.102;2024-01-30T00:05:29;102734.94;;;5.18;100.00
81033;BME280;70514;52.478;6.102;2024-01-30T00:07:57;102728.94;;;5.17;100.00
81033;BME280;70514;52.478;6.102;2024-01-30T00:10:24;102723.63;;;5.14;100.00
81033;BME280;70514;52.478;6.102;2024-01-30T00:12:52;102728.94;;;5.17;100.00
81033;BME280;70514;52.478;6.102;2024-01-30T00:15:20;102726.44;;;5.04;100.00
81033;BME280;70514;52.478;6.102;2024-01-30T00:17:47;102723.69;;;5.01;100.00
81033;BME280;70514;52.478;6.102;2024-01-30T00:20:15;102723.81;;;5.02;100.00
81033;BME280;70514;52.478;6.102;2024-01-30T00:22:43;102728.59;;;4.98;100.00
81033;BME280;70514;52.478;6.102;2024-01-30T00:25:11;102738.81;;;4.98;100.00
81033;BME280;70514;52.478;6.102;2024-01-30T00:27:38;102729.19;;;5.07;100.00
81033;BME280;70514;52.478;6.102;2024-01-30T00:30:06;102730.56;;;5.02;100.00
81033;BME280;70514;52.478;6.102;2024-01-30T00:32:34;102729.53;;;5.13;100.00
81033;BME280;70514;52.478;6.102;2024-01-30T00:35:02;102727.59;;;5.09;100.00
81033;BME280;70514;52.478;6.102;2024-01-30T00:37:30;102719.16;;;5.10;100.00
81033;BME280;70514;52.478;6.102;2024-01-30T00:39:59;102717.47;;;5.10;100.00
81033;BME280;70514;52.478;6.102;2024-01-30T00:42:26;102723.38;;;5.09;100.00
81033;BME280;70514;52.478;6.102;2024-01-30T00:44:54;102722.31;;;5.06;100.00
81033;BME280;70514;52.478;6.102;2024-01-30T00:47:22;102713.88;;;4.94;100.00
81033;BME280;70514;52.478;6.102;2024-01-30T00:49:50;102725.19;;;4.97;100.00
81033;BME280;70514;52.478;6.102;2024-01-30T00:52:17;102724.81;;;4.91;100.00
81033;BME280;70514;52.478;6.102;2024-01-30T00:54:45;102722.31;;;4.93;100.00
81033;BME280;70514;52.478;6.102;2024-01-30T00:57:13;102725.53;;;5.03;100.00
81033;BME280;70514;52.478;6.102;2024-01-30T00:59:40;102722.44;;;5.22;100.00
81033;BME280;70514;52.478;6.102;2024-01-30T01:02:08;102726.16;;;5.27;100.00
81033;BME280;70514;52.478;6.102;2024-01-30T01:04:35;102717.78;;;5.30;100.00
81033;BME280;70514;52.478;6.102;2024-01-30T01:07:03;102714.69;;;5.21;100.00
81033;BME280;70514;52.478;6.102;2024-01-30T01:09:31;102718.75;;;5.17;100.00
81033;BME280;70514;52.478;6.102;2024-01-30T01:11:59;102716.69;;;5.11;100.00
81033;BME280;70514;52.478;6.102;2024-01-30T01:14:27;102715.69;;;5.09;100.00
81033;BME280;70514;52.478;6.102;2024-01-30T01:16:55;102710.69;;;5.11;100.00
81033;BME280;70514;52.478;6.102;2024-01-30T01:19:23;102712.09;;;5.06;100.00
81033;BME280;70514;52.478;6.102;2024-01-30T01:21:51;102707.09;;;5.07;100.00
81033;BME280;70514;52.478;6.102;2024-01-30T01:24:19;102697.16;;;5.12;100.00
81033;BME280;70514;52.478;6.102;2024-01-30T01:26:46;102701.56;;;5.29;100.00
81033;BME280;70514;52.478;6.102;2024-01-30T01:29:14;102699.78;;;5.13;100.00
81033;BME280;70514;52.478;6.102;2024-01-30T01:31:43;102695.09;;;5.06;100.00
81033;BME280;70514;52.478;6.102;2024-01-30T01:34:11;102701.69;;;5.03;100.00
81033;BME280;70514;52.478;6.102;2024-01-30T01:36:39;102700.38;;;5.09;100.00
81033;BME280;70514;52.478;6.102;2024-01-30T01:39:07;102701.97;;;5.07;100.00
81033;BME280;70514;52.478;6.102;2024-01-30T01:41:35;102706.88;;;5.04;100.00
81033;BME280;70514;52.478;6.102;2024-01-30T01:44:04;102697.66;;;5.06;100.00
81033;BME280;70514;52.478;6.102;2024-01-30T01:46:32;102694.13;;;5.04;100.00
81033;BME280;70514;52.478;6.102;2024-01-30T01:49:02;102688.56;;;4.97;100.00
81033;BME280;70514;52.478;6.102;2024-01-30T01:51:30;102688.97;;;4.90;100.00
81033;BME280;70514;52.478;6.102;2024-01-30T01:53:58;102687.22;;;4.89;100.00
81033;BME280;70514;52.478;6.102;2024-01-30T01:56:29;102686.41;;;4.90;100.00
81033;BME280;70514;52.478;6.102;2024-01-30T01:58:58;102689.75;;;4.89;100.00
81033;BME280;70514;52.478;6.102;2024-01-30T02:01:27;102692.91;;;4.85;100.00
81033;BME280;70514;52.478;6.102;2024-01-30T02:03:55;102694.31;;;4.80;100.00
81033;BME280;70514;52.478;6.102;2024-01-30T02:06:23;102697.25;;;4.86;100.00
81033;BME280;70514;52.478;6.102;2024-01-30T02:08:51;102692.31;;;4.89;100.00
81033;BME280;70514;52.478;6.102;2024-01-30T02:11:18;102685.38;;;4.86;100.00
81033;BME280;70514;52.478;6.102;2024-01-30T02:13:47;102677.97;;;4.91;100.00
81033;BME280;70514;52.478;6.102;2024-01-30T02:16:14;102671.25;;;5.06;100.00
81033;BME280;70514;52.478;6.102;2024-01-30T02:18:42;102672.44;;;4.98;100.00
81033;BME280;70514;52.478;6.102;2024-01-30T02:21:14;102669.03;;;4.97;100.00
81033;BME280;70514;52.478;6.102;2024-01-30T02:23:42;102679.66;;;5.18;100.00
81033;BME280;70514;52.478;6.102;2024-01-30T02:26:10;102670.63;;;5.10;100.00
81033;BME280;70514;52.478;6.102;2024-01-30T02:28:39;102670.47;;;5.07;100.00
81033;BME280;70514;52.478;6.102;2024-01-30T02:31:06;102659.91;;;5.16;100.00
81033;BME280;70514;52.478;6.102;2024-01-30T02:33:34;102658.50;;;5.21;100.00
81033;BME280;70514;52.478;6.102;2024-01-30T02:36:02;102664.16;;;5.30;100.00
81033;BME280;70514;52.478;6.102;2024-01-30T02:38:29;102659.31;;;5.34;100.00
81033;BME280;70514;52.478;6.102;2024-01-30T02:40:57;102655.06;;;5.49;100.00
81033;BME280;70514;52.478;6.102;2024-01-30T02:43:25;102659.25;;;5.47;100.00
81033;BME280;70514;52.478;6.102;2024-01-30T02:45:52;102660.13;;;5.63;100.00
81033;BME280;70514;52.478;6.102;2024-01-30T02:48:20;102656.22;;;5.54;100.00
81033;BME280;70514;52.478;6.102;2024-01-30T02:50:48;102660.81;;;5.45;100.00
81033;BME280;70514;52.478;6.102;2024-01-30T02:53:15;102659.66;;;5.40;100.00
81033;BME280;70514;52.478;6.102;2024-01-30T02:55:43;102647.06;;;5.73;100.00
81033;BME280;70514;52.478;6.102;2024-01-30T02:58:10;102642.84;;;5.59;100.00
81033;BME280;70514;52.478;6.102;2024-01-30T03:00:38;102646.47;;;5.47;100.00
81033;BME280;70514;52.478;6.102;2024-01-30T03:03:06;102654.75;;;5.43;100.00
81033;BME280;70514;52.478;6.102;2024-01-30T03:05:34;102661.28;;;5.38;100.00
81033;BME280;70514;52.478;6.102;2024-01-30T03:08:01;102658.72;;;5.38;100.00
81033;BME280;70514;52.478;6.102;2024-01-30T03:10:29;102651.84;;;5.37;100.00
81033;BME280;70514;52.478;6.102;2024-01-30T03:12:57;102650.31;;;5.26;100.00
81033;BME280;70514;52.478;6.102;2024-01-30T03:15:24;102654.44;;;5.24;100.00
81033;BME280;70514;52.478;6.102;2024-01-30T03:17:53;102653.41;;;5.35;100.00
81033;BME280;70514;52.478;6.102;2024-01-30T03:20:20;102646.19;;;5.28;100.00
81033;BME280;70514;52.478;6.102;2024-01-30T03:22:48;102633.44;;;5.28;100.00
81033;BME280;70514;52.478;6.102;2024-01-30T03:25:15;102625.19;;;5.19;100.00
81033;BME280;70514;52.478;6.102;2024-01-30T03:27:43;102624.16;;;5.30;100.00
81033;BME280;70514;52.478;6.102;2024-01-30T03:30:10;102621.06;;;5.65;100.00
81033;BME280;70514;52.478;6.102;2024-01-30T03:32:38;102621.16;;;5.67;100.00
81033;BME280;70514;52.478;6.102;2024-01-30T03:35:06;102618.53;;;5.50;100.00
81033;BME280;70514;52.478;6.102;2024-01-30T03:37:33;102613.25;;;5.47;100.00
81033;BME280;70514;52.478;6.102;2024-01-30T03:40:01;102615.69;;;5.61;100.00
81033;BME280;70514;52.478;6.102;2024-01-30T03:42:29;102608.47;;;5.68;100.00
81033;BME280;70514;52.478;6.102;2024-01-30T03:44:57;102599.13;;;5.83;100.00
81033;BME280;70514;52.478;6.102;2024-01-30T03:47:25;102590.06;;;5.74;100.00
81033;BME280;70514;52.478;6.102;2024-01-30T03:49:52;102599.31;;;5.72;100.00
81033;BME280;70514;52.478;6.102;2024-01-30T03:52:20;102596.38;;;5.80;100.00
81033;BME280;70514;52.478;6.102;2024-01-30T03:54:49;102611.59;;;6.08;100.00
81033;BME280;70514;52.478;6.102;2024-01-30T03:57:17;102609.34;;;5.98;100.00
81033;BME280;70514;52.478;6.102;2024-01-30T03:59:44;102614.44;;;5.98;100.00
81033;BME280;70514;52.478;6.102;2024-01-30T04:02:12;102607.41;;;5.79;100.00
81033;BME280;70514;52.478;6.102;2024-01-30T04:04:40;102588.56;;;5.63;100.00
81033;BME280;70514;52.478;6.102;2024-01-30T04:07:08;102579.84;;;5.74;100.00
81033;BME280;70514;52.478;6.102;2024-01-30T04:09:35;102571.81;;;5.68;100.00
81033;BME280;70514;52.478;6.102;2024-01-30T04:12:03;102576.94;;;5.68;100.00
81033;BME280;70514;52.478;6.102;2024-01-30T04:14:31;102581.06;;;5.95;100.00
81033;BME280;70514;52.478;6.102;2024-01-30T04:16:58;102582.59;;;6.08;100.00
81033;BME280;70514;52.478;6.102;2024-01-30T04:19:26;102583.38;;;5.90;100.00
81033;BME280;70514;52.478;6.102;2024-01-30T04:21:54;102578.06;;;6.18;100.00
81033;BME280;70514;52.478;6.102;2024-01-30T04:24:21;102571.53;;;5.92;100.00
81033;BME280;70514;52.478;6.102;2024-01-30T04:26:49;102576.00;;;5.82;100.00
81033;BME280;70514;52.478;6.102;2024-01-30T04:29:16;102570.41;;;5.87;100.00
81033;BME280;70514;52.478;6.102;2024-01-30T04:31:44;102570.13;;;5.83;100.00
81033;BME280;70514;52.478;6.102;2024-01-30T04:34:11;102561.94;;;5.74;100.00
81033;BME280;70514;52.478;6.102;2024-01-30T04:36:39;102576.59;;;6.07;100.00
81033;BME280;70514;52.478;6.102;2024-01-30T04:39:07;102568.03;;;6.07;100.00
81033;BME280;70514;52.478;6.102;2024-01-30T04:41:36;102571.81;;;6.13;100.00
81033;BME280;70514;52.478;6.102;2024-01-30T04:44:03;102573.16;;;6.07;100.00
81033;BME280;70514;52.478;6.102;2024-01-30T04:46:31;102574.06;;;6.23;100.00
81033;BME280;70514;52.478;6.102;2024-01-30T04:48:58;102564.81;;;6.25;100.00
81033;BME280;70514;52.478;6.102;2024-01-30T04:51:26;102583.41;;;6.23;100.00
81033;BME280;70514;52.478;6.102;2024-01-30T04:53:54;102581.84;;;6.25;100.00
81033;BME280;70514;52.478;6.102;2024-01-30T04:56:21;102576.28;;;6.17;100.00
81033;BME280;70514;52.478;6.102;2024-01-30T04:58:49;102593.44;;;6.34;100.00
81033;BME280;70514;52.478;6.102;2024-01-30T05:01:16;102592.56;;;6.03;100.00
81033;BME280;70514;52.478;6.102;2024-01-30T05:03:44;102591.00;;;6.05;100.00
81033;BME280;70514;52.478;6.102;2024-01-30T05:06:12;102592.56;;;6.03;100.00
81033;BME280;70514;52.478;6.102;2024-01-30T05:08:40;102585.78;;;6.04;100.00
81033;BME280;70514;52.478;6.102;2024-01-30T05:11:07;102578.75;;;5.85;100.00
81033;BME280;70514;52.478;6.102;2024-01-30T05:13:35;102576.47;;;5.89;100.00
81033;BME280;70514;52.478;6.102;2024-01-30T05:16:02;102570.56;;;5.76;100.00
81033;BME280;70514;52.478;6.102;2024-01-30T05:18:31;102560.38;;;6.07;100.00
81033;BME280;70514;52.478;6.102;2024-01-30T05:20:59;102561.31;;;5.92;100.00
81033;BME280;70514;52.478;6.102;2024-01-30T05:23:27;102548.19;;;5.72;100.00
81033;BME280;70514;52.478;6.102;2024-01-30T05:25:54;102559.38;;;5.74;100.00
81033;BME280;70514;52.478;6.102;2024-01-30T05:28:22;102565.78;;;5.82;100.00
81033;BME280;70514;52.478;6.102;2024-01-30T05:30:49;102559.78;;;5.96;100.00
81033;BME280;70514;52.478;6.102;2024-01-30T05:33:17;102564.59;;;5.90;100.00
81033;BME280;70514;52.478;6.102;2024-01-30T05:35:45;102568.97;;;5.78;100.00
81033;BME280;70514;52.478;6.102;2024-01-30T05:38:13;102566.59;;;5.95;100.00
81033;BME280;70514;52.478;6.102;2024-01-30T05:40:41;102584.25;;;6.07;100.00
81033;BME280;70514;52.478;6.102;2024-01-30T05:43:08;102582.75;;;6.58;100.00
81033;BME280;70514;52.478;6.102;2024-01-30T05:45:36;102588.72;;;6.26;100.00
81033;BME280;70514;52.478;6.102;2024-01-30T05:48:04;102585.19;;;5.93;100.00
81033;BME280;70514;52.478;6.102;2024-01-30T05:50:32;102583.03;;;5.86;100.00
81033;BME280;70514;52.478;6.102;2024-01-30T05:52:59;102593.00;;;5.96;100.00
81033;BME280;70514;52.478;6.102;2024-01-30T05:55:27;102586.63;;;5.73;100.00
81033;BME280;70514;52.478;6.102;2024-01-30T05:57:55;102574.75;;;6.05;100.00
81033;BME280;70514;52.478;6.102;2024-01-30T06:00:23;102571.44;;;5.91;100.00
81033;BME280;70514;52.478;6.102;2024-01-30T06:02:50;102570.06;;;5.67;100.00
81033;BME280;70514;52.478;6.102;2024-01-30T06:05:18;102574.75;;;5.59;100.00
81033;BME280;70514;52.478;6.102;2024-01-30T06:07:46;102557.72;;;5.60;100.00
81033;BME280;70514;52.478;6.102;2024-01-30T06:10:14;102565.91;;;5.69;100.00
81033;BME280;70514;52.478;6.102;2024-01-30T06:12:41;102549.66;;;5.83;100.00
81033;BME280;70514;52.478;6.102;2024-01-30T06:15:09;102539.72;;;5.87;100.00
81033;BME280;70514;52.478;6.102;2024-01-30T06:17:37;102547.72;;;5.93;100.00
81033;BME280;70514;52.478;6.102;2024-01-30T06:20:05;102549.81;;;5.86;100.00
81033;BME280;70514;52.478;6.102;2024-01-30T06:22:33;102559.88;;;5.83;100.00
81033;BME280;70514;52.478;6.102;2024-01-30T06:25:00;102563.16;;;5.95;100.00
81033;BME280;70514;52.478;6.102;2024-01-30T06:27:28;102537.09;;;6.02;100.00
81033;BME280;70514;52.478;6.102;2024-01-30T06:29:55;102545.25;;;5.95;100.00
81033;BME280;70514;52.478;6.102;2024-01-30T06:32:23;102540.59;;;5.88;100.00
81033;BME280;70514;52.478;6.102;2024-01-30T06:34:50;102542.47;;;5.90;100.00
81033;BME280;70514;52.478;6.102;2024-01-30T06:37:18;102544.53;;;5.97;100.00
81033;BME280;70514;52.478;6.102;2024-01-30T06:39:46;102547.84;;;6.11;100.00
81033;BME280;70514;52.478;6.102;2024-01-30T06:42:13;102533.75;;;6.03;100.00
81033;BME280;70514;52.478;6.102;2024-01-30T06:44:41;102551.13;;;6.25;100.00
81033;BME280;70514;52.478;6.102;2024-01-30T06:47:09;102553.53;;;6.54;100.00
81033;BME280;70514;52.478;6.102;2024-01-30T06:49:36;102557.47;;;6.48;100.00
81033;BME280;70514;52.478;6.102;2024-01-30T06:52:06;102569.31;;;6.62;100.00
81033;BME280;70514;52.478;6.102;2024-01-30T06:54:33;102567.06;;;6.52;100.00
81033;BME280;70514;52.478;6.102;2024-01-30T06:57:01;102569.53;;;6.34;100.00
81033;BME280;70514;52.478;6.102;2024-01-30T06:59:29;102556.97;;;6.38;100.00
81033;BME280;70514;52.478;6.102;2024-01-30T07:01:56;102563.63;;;6.35;100.00
81033;BME280;70514;52.478;6.102;2024-01-30T07:04:24;102558.97;;;6.44;100.00
81033;BME280;70514;52.478;6.102;2024-01-30T07:06:52;102554.88;;;6.64;100.00
81033;BME280;70514;52.478;6.102;2024-01-30T07:09:20;102566.41;;;6.56;100.00
81033;BME280;70514;52.478;6.102;2024-01-30T07:11:48;102555.84;;;6.66;100.00
81033;BME280;70514;52.478;6.102;2024-01-30T07:14:16;102547.28;;;6.65;100.00
81033;BME280;70514;52.478;6.102;2024-01-30T07:16:43;102557.38;;;6.62;100.00
81033;BME280;70514;52.478;6.102;2024-01-30T07:19:11;102551.72;;;6.52;100.00
81033;BME280;70514;52.478;6.102;2024-01-30T07:21:38;102561.16;;;6.53;100.00
81033;BME280;70514;52.478;6.102;2024-01-30T07:24:08;102568.13;;;6.89;100.00
81033;BME280;70514;52.478;6.102;2024-01-30T07:26:35;102573.53;;;6.77;100.00
81033;BME280;70514;52.478;6.102;2024-01-30T07:29:03;102569.22;;;7.10;100.00
81033;BME280;70514;52.478;6.102;2024-01-30T07:31:31;102568.00;;;6.86;100.00
81033;BME280;70514;52.478;6.102;2024-01-30T07:34:00;102582.09;;;6.62;100.00
81033;BME280;70514;52.478;6.102;2024-01-30T07:36:28;102575.78;;;6.71;100.00
81033;BME280;70514;52.478;6.102;2024-01-30T07:38:56;102580.97;;;6.57;100.00
81033;BME280;70514;52.478;6.102;2024-01-30T07:41:23;102576.19;;;6.63;100.00
81033;BME280;70514;52.478;6.102;2024-01-30T07:43:52;102573.78;;;6.50;100.00
81033;BME280;70514;52.478;6.102;2024-01-30T07:46:21;102576.97;;;6.46;100.00
81033;BME280;70514;52.478;6.102;2024-01-30T07:48:48;102565.13;;;6.80;100.00
81033;BME280;70514;52.478;6.102;2024-01-30T07:51:19;102559.59;;;6.89;100.00
81033;BME280;70514;52.478;6.102;2024-01-30T07:53:54;102556.56;;;6.79;100.00
81033;BME280;70514;52.478;6.102;2024-01-30T07:56:25;102566.34;;;6.70;100.00
81033;BME280;70514;52.478;6.102;2024-01-30T07:58:53;102585.84;;;6.84;100.00
81033;BME280;70514;52.478;6.102;2024-01-30T08:01:20;102585.88;;;7.18;100.00
81033;BME280;70514;52.478;6.102;2024-01-30T08:03:48;102577.63;;;7.42;100.00
81033;BME280;70514;52.478;6.102;2024-01-30T08:06:16;102584.00;;;6.98;100.00
81033;BME280;70514;52.478;6.102;2024-01-30T08:08:44;102593.91;;;7.08;100.00
81033;BME280;70514;52.478;6.102;2024-01-30T08:11:11;102598.28;;;7.11;100.00
81033;BME280;70514;52.478;6.102;2024-01-30T08:13:39;102599.41;;;7.16;100.00
81033;BME280;70514;52.478;6.102;2024-01-30T08:16:07;102595.88;;;7.30;100.00
81033;BME280;70514;52.478;6.102;2024-01-30T08:18:39;102575.09;;;7.08;100.00
81033;BME280;70514;52.478;6.102;2024-01-30T08:21:06;102579.41;;;7.09;100.00
81033;BME280;70514;52.478;6.102;2024-01-30T08:23:34;102574.81;;;7.19;100.00
81033;BME280;70514;52.478;6.102;2024-01-30T08:26:01;102591.00;;;7.36;100.00
81033;BME280;70514;52.478;6.102;2024-01-30T08:28:29;102595.16;;;7.16;100.00
81033;BME280;70514;52.478;6.102;2024-01-30T08:30:57;102578.38;;;7.75;100.00
81033;BME280;70514;52.478;6.102;2024-01-30T08:33:25;102594.69;;;7.94;100.00
81033;BME280;70514;52.478;6.102;2024-01-30T08:35:52;102588.03;;;8.33;97.46
81033;BME280;70514;52.478;6.102;2024-01-30T08:38:20;102599.31;;;8.56;97.91
81033;BME280;70514;52.478;6.102;2024-01-30T08:40:48;102608.44;;;8.69;96.91
81033;BME280;70514;52.478;6.102;2024-01-30T08:43:15;102596.88;;;8.59;95.63
81033;BME280;70514;52.478;6.102;2024-01-30T08:45:44;102595.59;;;8.49;98.47
81033;BME280;70514;52.478;6.102;2024-01-30T08:48:11;102603.19;;;8.29;100.00
81033;BME280;70514;52.478;6.102;2024-01-30T08:50:39;102601.66;;;8.32;100.00
81033;BME280;70514;52.478;6.102;2024-01-30T08:53:07;102602.28;;;8.46;98.56
81033;BME280;70514;52.478;6.102;2024-01-30T08:55:34;102601.09;;;8.39;100.00
81033;BME280;70514;52.478;6.102;2024-01-30T08:58:02;102603.53;;;8.36;100.00
81033;BME280;70514;52.478;6.102;2024-01-30T09:00:32;102600.50;;;8.45;100.00
81033;BME280;70514;52.478;6.102;2024-01-30T09:02:59;102604.03;;;8.47;100.00
81033;BME280;70514;52.478;6.102;2024-01-30T09:05:27;102614.09;;;8.25;100.00
81033;BME280;70514;52.478;6.102;2024-01-30T09:07:55;102613.28;;;8.82;97.37
81033;BME280;70514;52.478;6.102;2024-01-30T09:10:23;102610.44;;;8.76;100.00
81033;BME280;70514;52.478;6.102;2024-01-30T09:12:51;102617.03;;;8.69;100.00
81033;BME280;70514;52.478;6.102;2024-01-30T09:15:18;102607.22;;;8.80;96.74
81033;BME280;70514;52.478;6.102;2024-01-30T09:17:47;102617.97;;;8.71;100.00
81033;BME280;70514;52.478;6.102;2024-01-30T09:20:15;102613.44;;;8.85;99.48
81033;BME280;70514;52.478;6.102;2024-01-30T09:22:43;102614.59;;;8.72;100.00
81033;BME280;70514;52.478;6.102;2024-01-30T09:25:11;102611.31;;;9.15;96.35
81033;BME280;70514;52.478;6.102;2024-01-30T09:27:38;102608.56;;;9.31;93.84
81033;BME280;70514;52.478;6.102;2024-01-30T09:30:07;102611.56;;;9.21;96.21
81033;BME280;70514;52.478;6.102;2024-01-30T09:32:35;102605.94;;;9.50;89.82
81033;BME280;70514;52.478;6.102;2024-01-30T09:35:03;102614.34;;;9.46;93.94
81033;BME280;70514;52.478;6.102;2024-01-30T09:37:31;102610.34;;;9.32;96.56
81033;BME280;70514;52.478;6.102;2024-01-30T09:39:58;102618.72;;;9.28;100.00
81033;BME280;70514;52.478;6.102;2024-01-30T09:42:28;102625.16;;;9.58;97.00
81033;BME280;70514;52.478;6.102;2024-01-30T09:45:00;102612.91;;;9.73;88.59
81033;BME280;70514;52.478;6.102;2024-01-30T09:47:30;102619.78;;;9.74;94.05
81033;BME280;70514;52.478;6.102;2024-01-30T09:49:58;102619.13;;;9.78;94.48
81033;BME280;70514;52.478;6.102;2024-01-30T09:52:26;102616.03;;;9.87;97.24
81033;BME280;70514;52.478;6.102;2024-01-30T09:54:54;102613.69;;;9.93;89.17
81033;BME280;70514;52.478;6.102;2024-01-30T09:57:22;102613.94;;;9.99;88.05
81033;BME280;70514;52.478;6.102;2024-01-30T09:59:49;102616.94;;;10.10;90.97
81033;BME280;70514;52.478;6.102;2024-01-30T10:02:19;102616.63;;;10.02;92.84
81033;BME280;70514;52.478;6.102;2024-01-30T10:04:47;102613.50;;;10.11;99.59
81033;BME280;70514;52.478;6.102;2024-01-30T10:07:15;102623.38;;;10.43;86.04
81033;BME280;70514;52.478;6.102;2024-01-30T10:09:43;102622.09;;;10.54;87.01
81033;BME280;70514;52.478;6.102;2024-01-30T10:12:11;102627.16;;;10.53;87.05
81033;BME280;70514;52.478;6.102;2024-01-30T10:14:40;102621.19;;;10.76;82.11
81033;BME280;70514;52.478;6.102;2024-01-30T10:17:08;102620.19;;;10.96;80.12
81033;BME280;70514;52.478;6.102;2024-01-30T10:19:47;102626.69;;;11.11;80.65
81033;BME280;70514;52.478;6.102;2024-01-30T10:22:15;102619.63;;;11.30;78.50
81033;BME280;70514;52.478;6.102;2024-01-30T10:24:43;102619.69;;;11.32;82.70
81033;BME280;70514;52.478;6.102;2024-01-30T10:27:12;102621.91;;;11.46;77.63
81033;BME280;70514;52.478;6.102;2024-01-30T10:29:40;102617.41;;;11.41;77.41
81033;BME280;70514;52.478;6.102;2024-01-30T10:32:08;102623.38;;;11.40;77.19
81033;BME280;70514;52.478;6.102;2024-01-30T10:34:36;102631.91;;;11.37;79.08
81033;BME280;70514;52.478;6.102;2024-01-30T10:37:08;102631.97;;;11.39;76.96
81033;BME280;70514;52.478;6.102;2024-01-30T10:39:45;102630.38;;;11.42;76.85
81033;BME280;70514;52.478;6.102;2024-01-30T10:42:14;102626.09;;;11.43;77.41
81033;BME280;70514;52.478;6.102;2024-01-30T10:47:28;102619.44;;;11.49;76.61
81033;BME280;70514;52.478;6.102;2024-01-30T10:49:56;102619.63;;;11.56;76.39
81033;BME280;70514;52.478;6.102;2024-01-30T10:52:24;102616.88;;;11.49;75.86
81033;BME280;70514;52.478;6.102;2024-01-30T10:54:54;102627.22;;;11.51;75.82
81033;BME280;70514;52.478;6.102;2024-01-30T10:57:25;102631.69;;;11.57;75.85
81033;BME280;70514;52.478;6.102;2024-01-30T10:59:58;102630.13;;;11.62;75.48
81033;BME280;70514;52.478;6.102;2024-01-30T11:02:26;102631.22;;;11.68;74.92
81033;BME280;70514;52.478;6.102;2024-01-30T11:04:55;102619.00;;;11.63;75.44
81033;BME280;70514;52.478;6.102;2024-01-30T11:07:26;102634.63;;;11.67;75.33
81033;BME280;70514;52.478;6.102;2024-01-30T11:12:25;102641.34;;;11.62;75.16
81033;BME280;70514;52.478;6.102;2024-01-30T11:15:03;102637.75;;;11.57;75.26
81033;BME280;70514;52.478;6.102;2024-01-30T11:17:45;102634.41;;;11.61;75.34
81033;BME280;70514;52.478;6.102;2024-01-30T11:20:25;102643.91;;;11.62;74.84
81033;BME280;70514;52.478;6.102;2024-01-30T11:22:53;102650.03;;;11.64;75.29
81033;BME280;70514;52.478;6.102;2024-01-30T11:25:22;102639.94;;;11.72;75.03
81033;BME280;70514;52.478;6.102;2024-01-30T11:27:51;102630.00;;;11.82;73.90
81033;BME280;70514;52.478;6.102;2024-01-30T11:30:26;102630.00;;;11.82;76.66
81033;BME280;70514;52.478;6.102;2024-01-30T11:33:00;102627.22;;;11.76;77.15
81033;BME280;70514;52.478;6.102;2024-01-30T11:35:33;102627.59;;;11.88;74.17
81033;BME280;70514;52.478;6.102;2024-01-30T11:38:01;102626.09;;;11.95;73.90
81033;BME280;70514;52.478;6.102;2024-01-30T11:40:29;102615.13;;;12.02;73.47
81033;BME280;70514;52.478;6.102;2024-01-30T11:42:57;102621.28;;;12.06;72.89
81033;BME280;70514;52.478;6.102;2024-01-30T11:45:26;102620.41;;;12.05;73.17
81033;BME280;70514;52.478;6.102;2024-01-30T11:47:54;102632.22;;;11.99;76.71
81033;BME280;70514;52.478;6.102;2024-01-30T11:50:23;102627.22;;;12.03;73.29
81033;BME280;70514;52.478;6.102;2024-01-30T11:52:52;102635.06;;;12.06;73.09
81033;BME280;70514;52.478;6.102;2024-01-30T11:55:21;102622.19;;;12.08;73.13
81033;BME280;70514;52.478;6.102;2024-01-30T11:57:48;102634.88;;;12.00;72.91
81033;BME280;70514;52.478;6.102;2024-01-30T12:00:19;102630.31;;;11.91;74.61
81033;BME280;70514;52.478;6.102;2024-01-30T12:02:51;102631.22;;;11.93;73.40
81033;BME280;70514;52.478;6.102;2024-01-30T12:05:23;102638.41;;;12.04;74.62
81033;BME280;70514;52.478;6.102;2024-01-30T12:07:51;102641.94;;;11.79;79.85
81033;BME280;70514;52.478;6.102;2024-01-30T12:10:19;102637.34;;;11.72;83.12
81033;BME280;70514;52.478;6.102;2024-01-30T12:12:47;102645.41;;;11.56;80.97
81033;BME280;70514;52.478;6.102;2024-01-30T12:15:16;102654.34;;;11.40;83.58
81033;BME280;70514;52.478;6.102;2024-01-30T12:17:45;102652.63;;;11.40;84.76
81033;BME280;70514;52.478;6.102;2024-01-30T12:20:14;102656.75;;;11.35;82.33
81033;BME280;70514;52.478;6.102;2024-01-30T12:22:43;102650.03;;;11.39;82.28
81033;BME280;70514;52.478;6.102;2024-01-30T12:25:12;102664.72;;;11.41;83.12
81033;BME280;70514;52.478;6.102;2024-01-30T12:27:44;102666.19;;;11.33;83.71
81033;BME280;70514;52.478;6.102;2024-01-30T12:30:13;102666.84;;;11.28;79.50
81033;BME280;70514;52.478;6.102;2024-01-30T12:32:41;102670.28;;;11.04;82.35
81033;BME280;70514;52.478;6.102;2024-01-30T12:35:10;102684.19;;;11.08;80.31
81033;BME280;70514;52.478;6.102;2024-01-30T12:37:39;102697.34;;;10.92;84.38
81033;BME280;70514;52.478;6.102;2024-01-30T12:40:07;102688.63;;;11.12;81.70
81033;BME280;70514;52.478;6.102;2024-01-30T12:42:35;102695.41;;;11.10;82.46
81033;BME280;70514;52.478;6.102;2024-01-30T12:45:04;102688.50;;;11.09;79.90
81033;BME280;70514;52.478;6.102;2024-01-30T12:47:32;102689.50;;;11.13;82.89
81033;BME280;70514;52.478;6.102;2024-01-30T12:50:00;102697.25;;;11.13;80.65
81033;BME280;70514;52.478;6.102;2024-01-30T12:52:28;102691.81;;;11.29;78.82
81033;BME280;70514;52.478;6.102;2024-01-30T12:54:56;102702.75;;;11.47;77.58
81033;BME280;70514;52.478;6.102;2024-01-30T12:57:24;102689.41;;;11.59;76.92
81033;BME280;70514;52.478;6.102;2024-01-30T12:59:51;102685.34;;;11.67;76.35